Time;durP1;ratioP1;P1;durP2;ratioP2;P2;SDS_P1;SDS_P2;PMS_P1;PMS_P2;Temp;Humidity;BMP_temperature;BMP_pressure;BME280_temperature;BME280_humidity;BME280_pressure;Samples;Min_cycle;Max_cycle;Signal;HPM_P1;HPM_P2
2021/12/21 00:01:16;;;;;;;26.60;9.38;;;;;;;-0.60;100.00;102923.31;5032223;28;20026;-76
2021/12/21 00:03:41;;;;;;;26.55;9.95;;;;;;;-0.64;100.00;102926.63;5031579;28;20059;-74
2021/12/21 00:06:06;;;;;;;20.92;9.52;;;;;;;-0.68;100.00;102931.75;5032614;28;20018;-76
2021/12/21 00:08:32;;;;;;;21.33;9.27;;;;;;;-0.71;100.00;102928.16;5031697;28;20405;-76
2021/12/21 00:10:59;;;;;;;21.38;8.80;;;;;;;-0.73;100.00;102935.00;5032183;28;20119;-76
2021/12/21 00:23:38;;;;;;;20.98;9.75;;;;;;;-0.78;100.00;102941.75;5014539;28;20037;-75
2021/12/21 00:26:19;;;;;;;23.50;9.75;;;;;;;-0.83;100.00;102931.19;5032010;28;20037;-74
2021/12/21 00:31:11;;;;;;;21.20;9.25;;;;;;;-0.86;100.00;102939.78;5030897;28;20188;-77
2021/12/21 00:33:39;;;;;;;25.92;9.82;;;;;;;-0.87;100.00;102927.59;5032137;28;20184;-76
2021/12/21 00:36:05;;;;;;;21.42;8.88;;;;;;;-0.89;100.00;102921.44;5031957;28;20055;-76
2021/12/21 00:38:31;;;;;;;20.17;9.45;;;;;;;-0.90;100.00;102913.59;5031937;28;20088;-76
2021/12/21 00:40:56;;;;;;;25.30;9.45;;;;;;;-0.95;100.00;102915.13;5032184;28;20038;-76
2021/12/21 00:43:21;;;;;;;28.27;9.73;;;;;;;-0.97;100.00;102916.78;5035829;28;20079;-76
2021/12/21 00:45:47;;;;;;;27.67;10.07;;;;;;;-1.00;100.00;102913.25;5035643;28;20369;-76
2021/12/21 00:48:15;;;;;;;23.35;8.80;;;;;;;-1.01;100.00;102902.78;5035641;28;20112;-77
2021/12/21 00:50:40;;;;;;;20.02;9.27;;;;;;;-1.00;100.00;102905.47;5034614;28;20079;-77
2021/12/21 00:53:05;;;;;;;20.27;9.50;;;;;;;-1.00;100.00;102908.06;5034971;28;20030;-75
2021/12/21 00:55:31;;;;;;;21.27;9.25;;;;;;;-1.01;100.00;102910.59;5035376;28;20075;-76
2021/12/21 00:57:56;;;;;;;22.50;9.20;;;;;;;-1.03;100.00;102904.47;5035111;28;20017;-75
2021/12/21 01:00:23;;;;;;;23.27;9.05;;;;;;;-1.06;100.00;102906.94;5035234;28;20025;-74
2021/12/21 01:02:49;;;;;;;29.90;9.60;;;;;;;-1.11;100.00;102905.88;5034651;28;20440;-77
2021/12/21 01:05:24;;;;;;;28.25;9.63;;;;;;;-1.14;100.00;102904.03;5035365;28;20108;-77
2021/12/21 01:07:53;;;;;;;16.52;8.30;;;;;;;-1.14;100.00;102906.66;5035077;28;20079;-74
2021/12/21 01:16:18;;;;;;;23.80;9.02;;;;;;;-1.19;100.00;102888.31;5034459;28;20469;-76
2021/12/21 01:18:20;;;;;;;27.50;10.00;;;;;;;-1.21;100.00;102895.13;5027840;28;20197;-77
2021/12/21 01:20:51;;;;;;;24.10;9.57;;;;;;;-1.23;100.00;102895.91;5034757;28;20017;-77
2021/12/21 01:31:24;;;;;;;21.27;8.95;;;;;;;-1.29;100.00;102885.28;4993226;28;20598;-77
2021/12/21 01:36:37;;;;;;;21.67;8.75;;;;;;;-1.32;100.00;102886.97;4992152;28;20069;-77
2021/12/21 01:52:01;;;;;;;19.30;8.98;;;;;;;-1.39;100.00;102884.94;4992663;28;20414;-75
2021/12/21 01:54:26;;;;;;;29.48;10.50;;;;;;;-1.42;100.00;102882.25;4992733;28;20034;-76
2021/12/21 01:56:53;;;;;;;24.63;9.10;;;;;;;-1.43;100.00;102889.97;4991941;28;20035;-76
2021/12/21 01:59:18;;;;;;;26.00;9.40;;;;;;;-1.42;100.00;102883.94;4992637;28;20046;-77
2021/12/21 02:01:43;;;;;;;21.48;9.80;;;;;;;-1.42;100.00;102878.75;4995677;28;20046;-77
2021/12/21 02:04:11;;;;;;;20.85;9.35;;;;;;;-1.45;100.00;102882.13;5014701;28;20101;-77
2021/12/21 02:06:36;;;;;;;28.50;8.85;;;;;;;-1.45;100.00;102876.91;5018515;28;20108;-77
2021/12/21 02:09:02;;;;;;;28.27;9.80;;;;;;;-1.45;100.00;102873.44;5033285;28;20109;-77
2021/12/21 02:11:27;;;;;;;18.27;8.32;;;;;;;-1.46;100.00;102872.53;5033713;28;20079;-77
2021/12/21 02:13:53;;;;;;;20.05;9.02;;;;;;;-1.44;100.00;102867.44;5033924;28;20033;-75
2021/12/21 02:16:28;;;;;;;20.15;9.20;;;;;;;-1.45;100.00;102865.66;5033567;28;20034;-75
2021/12/21 02:19:07;;;;;;;21.58;9.18;;;;;;;-1.51;100.00;102871.47;5033404;28;20056;-77
2021/12/21 02:21:40;;;;;;;21.88;8.90;;;;;;;-1.53;100.00;102870.56;5033595;28;20025;-76
2021/12/21 02:24:11;;;;;;;17.35;8.02;;;;;;;-1.57;100.00;102866.03;5033400;28;20579;-76
2021/12/21 02:26:43;;;;;;;22.92;8.63;;;;;;;-1.59;100.00;102865.13;5033133;28;20487;-76
2021/12/21 02:29:25;;;;;;;21.45;9.15;;;;;;;-1.59;100.00;102860.78;5033219;28;20029;-75
2021/12/21 02:31:51;;;;;;;21.85;8.90;;;;;;;-1.62;100.00;102859.78;5033123;28;20466;-78
2021/12/21 02:34:18;;;;;;;23.63;9.95;;;;;;;-1.66;100.00;102864.88;5033547;28;20104;-76
2021/12/21 02:36:46;;;;;;;19.55;8.43;;;;;;;-1.67;100.00;102867.44;5032939;28;20023;-77
2021/12/21 02:39:13;;;;;;;24.00;9.57;;;;;;;-1.71;100.00;102869.00;5032587;28;20481;-75
2021/12/21 02:41:39;;;;;;;25.17;9.05;;;;;;;-1.74;100.00;102866.31;5033661;28;20033;-75
2021/12/21 02:44:05;;;;;;;24.90;9.70;;;;;;;-1.76;100.00;102862.75;5033525;28;20021;-75
2021/12/21 02:46:30;;;;;;;25.42;9.40;;;;;;;-1.76;100.00;102867.06;5032812;28;20040;-76
2021/12/21 02:48:55;;;;;;;28.55;9.38;;;;;;;-1.77;100.00;102867.91;5032923;28;20030;-75
2021/12/21 02:51:22;;;;;;;23.70;8.50;;;;;;;-1.78;100.00;102866.13;5032843;28;20029;-76
2021/12/21 02:53:47;;;;;;;18.23;9.15;;;;;;;-1.78;100.00;102866.13;5033231;28;20029;-75
2021/12/21 02:56:13;;;;;;;22.92;8.55;;;;;;;-1.77;100.00;102866.19;5033159;28;20433;-75
2021/12/21 02:58:39;;;;;;;19.38;8.80;;;;;;;-1.78;100.00;102869.59;5032500;28;20062;-77
2021/12/21 03:01:08;;;;;;;19.17;9.23;;;;;;;-1.81;100.00;102870.34;5032976;28;20052;-77
2021/12/21 03:03:34;;;;;;;21.48;9.10;;;;;;;-1.81;100.00;102869.47;5032625;28;20029;-77
2021/12/21 03:06:01;;;;;;;22.10;9.10;;;;;;;-1.84;100.00;102870.25;5032758;28;20381;-75
2021/12/21 03:08:45;;;;;;;20.60;9.77;;;;;;;-1.83;100.00;102873.72;5032897;28;20025;-77
2021/12/21 03:11:18;;;;;;;22.70;9.32;;;;;;;-1.85;100.00;102862.41;5033083;28;20049;-76
2021/12/21 03:16:28;;;;;;;26.05;9.30;;;;;;;-1.90;100.00;102866.53;5032996;28;20103;-76
2021/12/21 03:18:55;;;;;;;23.00;9.85;;;;;;;-1.93;100.00;102871.59;5032614;28;20025;-76
2021/12/21 03:21:21;;;;;;;27.30;9.02;;;;;;;-1.95;100.00;102863.75;5032141;28;20060;-76
2021/12/21 03:23:46;;;;;;;21.42;8.70;;;;;;;-1.97;100.00;102867.97;5032863;28;20852;-78
2021/12/21 03:26:12;;;;;;;21.52;8.82;;;;;;;-1.99;100.00;102862.72;5032399;28;20470;-78
2021/12/21 03:28:37;;;;;;;27.17;8.88;;;;;;;-2.00;100.00;102870.47;5031414;28;20102;-77
2021/12/21 03:31:03;;;;;;;25.65;9.65;;;;;;;-2.02;100.00;102867.81;5031924;28;20033;-78
2021/12/21 03:33:28;;;;;;;24.27;9.50;;;;;;;-2.05;100.00;102852.09;5032559;28;20457;-77
2021/12/21 03:35:54;;;;;;;26.17;9.68;;;;;;;-2.06;100.00;102854.63;5032742;28;20029;-78
2021/12/21 03:38:19;;;;;;;21.42;9.50;;;;;;;-2.08;100.00;102854.59;5032488;28;20050;-78
2021/12/21 03:40:44;;;;;;;24.88;9.32;;;;;;;-2.10;100.00;102840.66;5031412;28;20462;-75
2021/12/21 03:43:10;;;;;;;23.90;9.60;;;;;;;-2.11;100.00;102853.56;5032641;28;20402;-76
2021/12/21 03:45:42;;;;;;;25.02;9.35;;;;;;;-2.12;100.00;102854.38;5032751;28;20032;-77
2021/12/21 03:48:12;;;;;;;28.00;9.80;;;;;;;-2.14;100.00;102854.34;5032603;28;20033;-75
2021/12/21 03:50:37;;;;;;;26.88;9.68;;;;;;;-2.16;100.00;102856.00;5032189;28;20069;-76
2021/12/21 03:53:03;;;;;;;23.42;9.63;;;;;;;-2.18;100.00;102853.31;5032381;28;20063;-76
2021/12/21 03:55:28;;;;;;;22.95;8.75;;;;;;;-2.19;100.00;102854.13;5032564;28;20071;-75
2021/12/21 03:57:53;;;;;;;23.42;9.07;;;;;;;-2.19;100.00;102850.66;5032371;28;20025;-76
2021/12/21 04:00:20;;;;;;;20.88;8.68;;;;;;;-2.20;100.00;102848.88;5032422;28;20460;-75
2021/12/21 04:02:45;;;;;;;26.73;9.38;;;;;;;-2.20;100.00;102835.91;5031433;28;20029;-78
2021/12/21 04:05:11;;;;;;;24.92;8.98;;;;;;;-2.18;100.00;102839.47;5032754;28;20424;-77
2021/12/21 04:07:36;;;;;;;25.30;9.02;;;;;;;-2.17;100.00;102843.84;5031017;28;20072;-75
2021/12/21 04:10:03;;;;;;;20.60;9.68;;;;;;;-2.20;100.00;102833.31;5032307;28;20432;-77
2021/12/21 04:12:28;;;;;;;25.50;10.02;;;;;;;-2.21;100.00;102836.72;5031039;28;20037;-77
2021/12/21 04:14:56;;;;;;;23.15;9.85;;;;;;;-2.22;100.00;102835.84;5032067;28;20076;-77
2021/12/21 04:17:23;;;;;;;24.73;9.63;;;;;;;-2.23;100.00;102838.41;5035157;28;20032;-77
2021/12/21 04:19:50;;;;;;;27.95;10.27;;;;;;;-2.26;100.00;102827.88;5035993;28;20021;-75
2021/12/21 04:22:16;;;;;;;23.73;9.60;;;;;;;-2.28;100.00;102821.75;5035668;28;20466;-76
2021/12/21 04:24:43;;;;;;;20.73;9.15;;;;;;;-2.31;100.00;102825.97;5035802;28;20030;-75
2021/12/21 04:27:08;;;;;;;25.00;9.30;;;;;;;-2.35;100.00;102821.50;5035784;28;20033;-76
2021/12/21 04:29:34;;;;;;;22.85;10.10;;;;;;;-2.36;100.00;102816.25;5035903;28;20075;-77
2021/12/21 04:31:59;;;;;;;21.38;9.38;;;;;;;-2.36;100.00;102817.13;5035628;28;20029;-77
2021/12/21 04:34:25;;;;;;;22.48;9.82;;;;;;;-2.36;100.00;102822.31;5035365;28;20466;-77
2021/12/21 04:36:50;;;;;;;22.83;9.88;;;;;;;-2.38;100.00;102828.28;5035610;28;20068;-77
2021/12/21 04:39:27;;;;;;;21.95;9.13;;;;;;;-2.37;100.00;102830.06;5035477;28;20045;-76
2021/12/21 04:41:52;;;;;;;23.10;9.48;;;;;;;-2.40;100.00;102820.44;5035250;28;20505;-73
2021/12/21 04:44:17;;;;;;;28.02;9.82;;;;;;;-2.41;100.00;102821.25;5034722;28;20061;-77
2021/12/21 04:46:43;;;;;;;20.08;9.98;;;;;;;-2.42;100.00;102832.44;5035482;28;20073;-77
2021/12/21 04:49:09;;;;;;;24.45;10.40;;;;;;;-2.43;100.00;102822.00;5035528;28;20064;-77
2021/12/21 04:51:34;;;;;;;22.58;10.13;;;;;;;-2.45;100.00;102821.94;5035407;28;20033;-73
2021/12/21 04:53:59;;;;;;;29.75;10.45;;;;;;;-2.43;100.00;102824.59;5035085;28;20032;-73
2021/12/21 04:56:25;;;;;;;23.65;9.90;;;;;;;-2.45;100.00;102826.28;5034793;28;20028;-73
2021/12/21 04:58:50;;;;;;;21.35;9.60;;;;;;;-2.50;100.00;102823.47;5034940;28;20060;-73
2021/12/21 05:01:16;;;;;;;23.83;9.85;;;;;;;-2.53;100.00;102824.22;5035256;28;20032;-73
2021/12/21 05:03:41;;;;;;;25.23;10.20;;;;;;;-2.54;100.00;102824.19;5035217;28;20021;-77
2021/12/21 05:06:07;;;;;;;25.92;9.70;;;;;;;-2.56;100.00;102829.28;5034560;28;20036;-74
2021/12/21 05:08:37;;;;;;;19.90;9.75;;;;;;;-2.58;100.00;102817.06;5035083;28;20034;-76
2021/12/21 05:11:05;;;;;;;24.52;10.63;;;;;;;-2.61;100.00;102817.81;5035106;28;20180;-76
2021/12/21 05:13:34;;;;;;;21.65;9.95;;;;;;;-2.63;100.00;102819.50;5034750;28;20022;-77
2021/12/21 05:15:59;;;;;;;19.88;9.80;;;;;;;-2.64;100.00;102817.72;5034235;28;20025;-77
2021/12/21 05:18:26;;;;;;;22.95;9.43;;;;;;;-2.62;100.00;102818.69;5035008;28;20048;-77
2021/12/21 05:20:52;;;;;;;26.30;10.48;;;;;;;-2.65;100.00;102813.34;5034956;28;20121;-77
2021/12/21 05:23:17;;;;;;;23.05;10.38;;;;;;;-2.66;100.00;102817.66;5034489;28;20029;-74
2021/12/21 05:25:43;;;;;;;21.58;10.27;;;;;;;-2.68;100.00;102816.69;5034784;28;20376;-73
2021/12/21 05:28:10;;;;;;;34.03;10.98;;;;;;;-2.68;100.00;102814.09;5033857;28;20022;-73
2021/12/21 05:30:37;;;;;;;20.95;10.70;;;;;;;-2.68;100.00;102819.28;5034311;28;20029;-73
2021/12/21 05:33:04;;;;;;;23.92;11.50;;;;;;;-2.69;100.00;102817.50;5034422;28;20101;-74
2021/12/21 05:35:30;;;;;;;28.88;11.27;;;;;;;-2.72;100.00;102812.22;5034862;28;20037;-74
2021/12/21 05:38:00;;;;;;;24.30;10.77;;;;;;;-2.72;100.00;102820.00;5034030;28;20140;-75
2021/12/21 05:40:39;;;;;;;24.98;10.85;;;;;;;-2.72;100.00;102812.22;5034328;28;20057;-75
2021/12/21 05:43:06;;;;;;;24.48;11.15;;;;;;;-2.71;100.00;102813.97;5014408;28;20042;-74
2021/12/21 05:45:32;;;;;;;27.20;11.93;;;;;;;-2.71;100.00;102811.38;5014515;28;20022;-73
2021/12/21 05:47:57;;;;;;;22.30;11.10;;;;;;;-2.72;100.00;102822.56;5019900;28;20022;-73
2021/12/21 05:50:22;;;;;;;24.42;11.20;;;;;;;-2.73;100.00;102813.03;5034251;28;20033;-76
2021/12/21 05:52:48;;;;;;;28.60;11.45;;;;;;;-2.73;100.00;102820.81;5033969;28;20029;-75
2021/12/21 05:55:14;;;;;;;21.55;11.40;;;;;;;-2.74;100.00;102807.78;5034180;28;20036;-75
2021/12/21 05:57:40;;;;;;;25.17;11.43;;;;;;;-2.72;100.00;102820.00;5034126;28;20421;-76
2021/12/21 06:00:08;;;;;;;24.38;11.50;;;;;;;-2.74;100.00;102811.25;5033388;28;20083;-72
2021/12/21 06:02:34;;;;;;;26.00;11.40;;;;;;;-2.75;100.00;102824.16;5033488;28;20026;-75
2021/12/21 06:04:59;;;;;;;23.17;11.55;;;;;;;-2.76;100.00;102827.56;5034261;28;20085;-75
2021/12/21 06:07:24;;;;;;;25.08;11.27;;;;;;;-2.78;100.00;102830.09;5033435;28;20034;-75
2021/12/21 06:09:50;;;;;;;27.60;11.18;;;;;;;-2.78;100.00;102831.81;5033671;28;20029;-74
2021/12/21 06:12:32;;;;;;;23.65;10.77;;;;;;;-2.82;100.00;102830.78;5019154;28;20107;-75
2021/12/21 06:25:41;;;;;;;27.48;11.30;;;;;;;-2.85;100.00;102812.50;5033479;28;20133;-73
2021/12/21 06:28:09;;;;;;;24.90;11.07;;;;;;;-2.87;100.00;102820.22;5033256;28;20109;-76
2021/12/21 06:30:37;;;;;;;30.15;11.52;;;;;;;-2.89;100.00;102824.47;5033351;28;20029;-74
2021/12/21 06:33:04;;;;;;;23.98;11.10;;;;;;;-2.89;100.00;102815.78;5032988;28;20489;-75
2021/12/21 06:35:30;;;;;;;25.65;12.07;;;;;;;-2.91;100.00;102826.09;5032880;28;20041;-74
2021/12/21 06:37:55;;;;;;;26.73;12.18;;;;;;;-2.88;100.00;102814.97;5032586;28;20054;-75
2021/12/21 06:40:21;;;;;;;25.55;11.77;;;;;;;-2.89;100.00;102816.69;5032432;28;20029;-75
2021/12/21 06:42:50;;;;;;;24.50;11.52;;;;;;;-2.91;100.00;102820.03;5033145;28;20041;-74
2021/12/21 06:45:28;;;;;;;22.52;12.27;;;;;;;-2.90;100.00;102819.19;5032436;28;20026;-74
2021/12/21 06:53:23;;;;;;;27.05;12.25;;;;;;;-2.88;100.00;102817.56;5032263;28;20044;-75
2021/12/21 06:55:49;;;;;;;28.65;13.68;;;;;;;-2.88;100.00;102822.75;5032940;28;20037;-75
2021/12/21 06:58:15;;;;;;;28.95;12.60;;;;;;;-2.92;100.00;102823.44;5031939;28;20082;-74
2021/12/21 07:00:41;;;;;;;32.97;14.48;;;;;;;-2.92;100.00;102816.53;5032492;28;20131;-76
2021/12/21 07:03:07;;;;;;;31.95;13.48;;;;;;;-2.92;100.00;102813.94;5032217;28;20032;-75
2021/12/21 07:05:32;;;;;;;26.98;13.75;;;;;;;-2.93;100.00;102819.94;5014233;28;20026;-75
2021/12/21 07:07:58;;;;;;;27.92;14.13;;;;;;;-2.93;100.00;102817.34;5013092;28;20030;-75
2021/12/21 07:10:27;;;;;;;29.55;12.18;;;;;;;-2.94;100.00;102814.69;5030442;28;20029;-75
2021/12/21 07:18:29;;;;;;;28.40;14.00;;;;;;;-2.97;100.00;102824.13;5028169;28;20448;-74
2021/12/21 07:21:00;;;;;;;28.30;13.20;;;;;;;-2.98;100.00;102830.13;5024321;28;20030;-74
2021/12/21 07:23:26;;;;;;;23.98;12.23;;;;;;;-2.99;100.00;102824.91;5015073;28;20026;-73
2021/12/21 07:25:51;;;;;;;30.65;13.63;;;;;;;-2.99;100.00;102818.00;5032423;28;20350;-75
2021/12/21 07:28:22;;;;;;;24.88;13.13;;;;;;;-2.99;100.00;102830.09;5032882;28;20029;-74
2021/12/21 07:30:49;;;;;;;27.85;14.32;;;;;;;-3.00;100.00;102829.19;5031187;28;20068;-74
2021/12/21 07:33:15;;;;;;;22.38;13.23;;;;;;;-2.98;100.00;102835.31;5031764;28;20025;-73
2021/12/21 07:35:41;;;;;;;28.33;12.95;;;;;;;-2.98;100.00;102834.41;5032537;28;20057;-75
2021/12/21 07:38:06;;;;;;;23.67;12.02;;;;;;;-2.98;100.00;102842.19;5032248;28;20120;-74
2021/12/21 07:40:32;;;;;;;28.65;13.40;;;;;;;-2.98;100.00;102829.22;5032218;28;20045;-74
2021/12/21 07:42:58;;;;;;;29.77;13.63;;;;;;;-2.98;100.00;102827.53;5030920;28;20120;-74
2021/12/21 07:45:23;;;;;;;35.13;13.90;;;;;;;-2.97;100.00;102825.81;5032071;28;20129;-78
2021/12/21 07:47:49;;;;;;;32.70;14.65;;;;;;;-2.97;100.00;102821.56;5031469;28;20500;-79
2021/12/21 07:50:15;;;;;;;28.80;13.77;;;;;;;-2.97;100.00;102816.38;5033614;28;20074;-77
2021/12/21 07:52:40;;;;;;;32.58;15.52;;;;;;;-2.96;100.00;102825.88;5036684;28;20025;-77
2021/12/21 07:55:06;;;;;;;27.42;13.68;;;;;;;-2.99;100.00;102825.78;5035815;28;20037;-78
2021/12/21 07:57:32;;;;;;;24.77;13.07;;;;;;;-2.98;100.00;102834.41;5035672;28;20112;-77
2021/12/21 07:59:58;;;;;;;28.38;13.57;;;;;;;-3.00;100.00;102841.25;5036024;28;20029;-75
2021/12/21 08:02:25;;;;;;;34.25;12.60;;;;;;;-2.96;100.00;102832.78;5035555;28;20033;-75
2021/12/21 08:04:52;;;;;;;27.33;12.65;;;;;;;-2.93;100.00;102837.22;5036316;28;20033;-75
2021/12/21 08:07:22;;;;;;;27.13;13.20;;;;;;;-2.92;100.00;102839.88;5035695;28;20021;-75
2021/12/21 08:09:52;;;;;;;25.67;13.35;;;;;;;-2.89;100.00;102841.72;5036663;28;20068;-72
2021/12/21 08:12:18;;;;;;;29.60;13.40;;;;;;;-2.87;100.00;102845.28;5035950;28;20014;-71
2021/12/21 08:14:45;;;;;;;29.60;14.85;;;;;;;-2.85;100.00;102851.38;5034904;28;20060;-72
2021/12/21 08:17:11;;;;;;;29.17;14.32;;;;;;;-2.83;100.00;102850.63;5034895;28;20413;-72
2021/12/21 08:19:36;;;;;;;29.13;14.38;;;;;;;-2.79;100.00;102854.25;5033843;28;20034;-75
2021/12/21 08:22:02;;;;;;;28.75;15.23;;;;;;;-2.73;100.00;102859.69;5036150;28;20033;-75
2021/12/21 08:24:29;;;;;;;28.45;13.65;;;;;;;-2.69;100.00;102859.00;5035588;28;20080;-74
2021/12/21 08:26:56;;;;;;;27.70;15.15;;;;;;;-2.67;100.00;102861.69;5035447;28;20037;-73
2021/12/21 08:29:21;;;;;;;31.70;14.32;;;;;;;-2.67;100.00;102870.34;5035803;28;20539;-73
2021/12/21 08:31:47;;;;;;;24.05;13.15;;;;;;;-2.66;100.00;102882.50;5034858;28;20037;-72
2021/12/21 08:34:14;;;;;;;33.33;13.40;;;;;;;-2.65;100.00;102870.41;5035078;28;20517;-73
2021/12/21 08:36:40;;;;;;;33.00;13.75;;;;;;;-2.64;100.00;102880.84;5038933;28;20029;-73
2021/12/21 08:39:07;;;;;;;27.33;13.35;;;;;;;-2.60;100.00;102874.06;5035678;28;20112;-73
2021/12/21 08:41:38;;;;;;;24.10;12.50;;;;;;;-2.56;100.00;102875.97;5035477;28;20022;-73
2021/12/21 08:44:04;;;;;;;28.80;13.47;;;;;;;-2.54;100.00;102879.53;5035865;28;20086;-73
2021/12/21 08:46:29;;;;;;;24.27;12.85;;;;;;;-2.48;100.00;102873.72;5033133;28;20041;-73
2021/12/21 08:48:54;;;;;;;27.33;13.52;;;;;;;-2.42;100.00;102875.69;5041652;28;20403;-73
2021/12/21 08:51:19;;;;;;;22.00;12.82;;;;;;;-2.36;100.00;102862.97;5055539;28;20376;-72
2021/12/21 08:53:45;;;;;;;26.15;13.40;;;;;;;-2.34;100.00;102863.91;5055618;28;20040;-71
2021/12/21 08:56:10;;;;;;;24.75;13.23;;;;;;;-2.33;100.00;102857.88;5045993;28;20017;-73
2021/12/21 08:58:36;;;;;;;24.15;13.23;;;;;;;-2.24;100.00;102854.78;5035366;28;20026;-73
2021/12/21 09:01:02;;;;;;;25.20;13.07;;;;;;;-2.17;100.00;102856.81;5034679;28;20343;-72
2021/12/21 09:03:28;;;;;;;24.05;13.00;;;;;;;-2.14;100.00;102849.13;5034576;28;20035;-72
2021/12/21 09:05:53;;;;;;;27.67;13.02;;;;;;;-2.05;100.00;102848.63;5034977;28;20021;-73
2021/12/21 09:08:19;;;;;;;27.00;13.18;;;;;;;-2.01;100.00;102858.31;5034728;28;20029;-71
2021/12/21 09:10:44;;;;;;;28.13;12.70;;;;;;;-1.91;100.00;102856.97;5034814;28;20385;-71
2021/12/21 09:13:10;;;;;;;25.63;13.13;;;;;;;-1.84;100.00;102848.59;5035151;28;20037;-73
2021/12/21 09:15:37;;;;;;;28.63;14.57;;;;;;;-1.79;100.00;102856.56;5034839;28;20084;-73
2021/12/21 09:18:02;;;;;;;30.95;14.50;;;;;;;-1.73;100.00;102868.06;5034683;28;20043;-72
2021/12/21 09:20:30;;;;;;;30.17;13.50;;;;;;;-1.60;100.00;102866.81;5034783;28;20365;-71
2021/12/21 09:22:56;;;;;;;26.63;14.63;;;;;;;-1.44;100.00;102865.69;5035268;28;20025;-73
2021/12/21 09:25:23;;;;;;;25.55;15.15;;;;;;;-1.17;100.00;102851.94;5034934;28;20102;-73
2021/12/21 09:27:50;;;;;;;24.35;13.55;;;;;;;-0.89;100.00;102852.94;5034538;28;20437;-71
2021/12/21 09:30:17;;;;;;;31.60;14.60;;;;;;;-0.43;100.00;102861.44;5034492;28;20104;-72
2021/12/21 09:32:43;;;;;;;24.60;13.18;;;;;;;0.17;100.00;102855.53;5039598;28;20032;-73
2021/12/21 09:35:09;;;;;;;22.58;12.95;;;;;;;0.76;100.00;102855.53;5034151;28;20025;-72
2021/12/21 09:37:35;;;;;;;25.73;13.63;;;;;;;1.31;100.00;102845.72;5034601;28;20061;-74
2021/12/21 09:40:03;;;;;;;17.50;10.38;;;;;;;2.07;100.00;102844.94;5034670;28;20032;-74
2021/12/21 09:42:30;;;;;;;25.08;10.07;;;;;;;3.11;100.00;102836.59;5032993;28;20076;-72
2021/12/21 09:44:57;;;;;;;20.83;8.70;;;;;;;4.22;100.00;102835.75;5029598;28;20060;-75
2021/12/21 09:47:23;;;;;;;16.70;9.32;;;;;;;5.04;95.60;102839.38;5039928;28;20531;-75
2021/12/21 09:49:50;;;;;;;18.80;9.35;;;;;;;5.78;95.80;102841.78;5039025;28;20033;-73
2021/12/21 09:52:21;;;;;;;17.15;8.05;;;;;;;6.24;84.03;102830.72;5040494;28;20029;-74
2021/12/21 09:54:48;;;;;;;14.10;8.02;;;;;;;6.41;82.53;102838.69;5045556;28;20347;-74
2021/12/21 09:57:16;;;;;;;14.32;8.20;;;;;;;7.00;78.77;102836.25;5039119;28;20035;-75
2021/12/21 09:59:46;;;;;;;15.85;7.90;;;;;;;7.56;75.57;102834.56;5038011;28;20025;-76
2021/12/21 10:02:12;;;;;;;14.82;7.50;;;;;;;7.74;74.49;102836.31;5033956;28;20465;-76
2021/12/21 10:05:07;;;;;;;19.08;8.48;;;;;;;7.79;67.34;102842.47;5033499;28;20067;-76
2021/12/21 10:07:34;;;;;;;15.10;7.95;;;;;;;8.09;68.02;102852.97;5032789;28;20065;-75
2021/12/21 10:10:07;;;;;;;14.57;8.15;;;;;;;8.33;64.17;102847.59;5031604;28;20029;-75
2021/12/21 10:12:38;;;;;;;14.95;7.90;;;;;;;8.53;62.22;102846.72;5023552;28;20405;-76
2021/12/21 10:15:05;;;;;;;14.18;7.57;;;;;;;8.82;59.48;102843.03;5027397;28;20051;-75
2021/12/21 10:17:35;;;;;;;15.38;7.95;;;;;;;8.75;58.13;102838.69;5029540;28;20021;-76
2021/12/21 10:20:04;;;;;;;15.25;8.00;;;;;;;8.72;57.39;102836.94;5013801;28;20021;-75
2021/12/21 10:22:30;;;;;;;16.88;8.02;;;;;;;9.14;55.49;102837.59;5030079;28;20367;-75
2021/12/21 10:24:55;;;;;;;16.17;8.25;;;;;;;9.16;55.80;102834.94;5033961;28;20036;-75
2021/12/21 10:27:24;;;;;;;16.92;9.07;;;;;;;9.21;53.35;102821.66;5027768;28;20029;-76
2021/12/21 10:29:58;;;;;;;19.13;8.75;;;;;;;9.48;54.55;102817.94;5033773;28;20033;-75
2021/12/21 10:32:25;;;;;;;18.67;9.52;;;;;;;9.59;53.54;102826.66;5033445;28;20037;-75
2021/12/21 10:34:53;;;;;;;20.40;10.35;;;;;;;9.56;53.08;102812.59;5033035;28;20026;-74
2021/12/21 10:37:25;;;;;;;16.88;8.75;;;;;;;9.79;51.21;102801.78;5033184;28;20842;-73
2021/12/21 10:40:09;;;;;;;15.82;8.82;;;;;;;9.75;52.38;102798.28;5032749;28;20095;-75
2021/12/21 10:42:59;;;;;;;17.73;8.43;;;;;;;9.79;53.83;102797.34;5030245;28;20033;-75
2021/12/21 10:45:28;;;;;;;20.13;9.45;;;;;;;10.02;51.46;102796.25;4986375;28;20050;-74
2021/12/21 10:47:54;;;;;;;16.38;9.02;;;;;;;10.04;51.15;102799.75;4985584;28;20088;-74
2021/12/21 10:50:20;;;;;;;16.13;8.55;;;;;;;10.13;50.75;102793.50;4986490;28;20133;-73
2021/12/21 10:52:56;;;;;;;15.55;8.70;;;;;;;9.84;51.36;102789.38;4990040;28;20113;-74
2021/12/21 10:55:36;;;;;;;16.40;8.52;;;;;;;10.09;51.12;102787.34;4989865;28;20034;-74
2021/12/21 10:58:15;;;;;;;16.75;9.75;;;;;;;10.25;49.63;102787.16;4985855;28;20041;-75
2021/12/21 11:00:52;;;;;;;19.30;9.98;;;;;;;10.15;51.31;102792.56;4990136;28;20482;-74
2021/12/21 11:03:29;;;;;;;18.08;9.70;;;;;;;10.57;49.53;102794.72;4987176;28;20038;-73
2021/12/21 11:05:55;;;;;;;19.08;9.57;;;;;;;10.69;50.33;102796.34;4987966;28;20031;-75
2021/12/21 11:08:24;;;;;;;17.05;9.07;;;;;;;11.12;46.28;102798.31;4990957;28;20031;-74
2021/12/21 11:10:51;;;;;;;15.50;8.30;;;;;;;11.47;44.21;102783.63;4990432;28;20116;-73
2021/12/21 11:13:17;;;;;;;16.38;7.80;;;;;;;11.42;43.21;102788.13;4990141;28;20510;-73
2021/12/21 11:15:52;;;;;;;17.17;8.25;;;;;;;11.52;45.81;102791.53;4988898;28;20094;-73
2021/12/21 11:18:18;;;;;;;17.83;8.88;;;;;;;11.80;41.90;102793.66;4989660;28;20022;-73
2021/12/21 11:20:48;;;;;;;16.67;9.20;;;;;;;11.61;42.44;102780.72;4990725;28;20038;-74
2021/12/21 11:23:18;;;;;;;17.52;9.77;;;;;;;11.45;43.96;102777.47;5026383;28;20543;-73
2021/12/21 11:25:47;;;;;;;22.25;10.00;;;;;;;11.43;44.92;102779.28;5031359;28;20105;-73
2021/12/21 11:28:19;;;;;;;16.92;9.40;;;;;;;11.70;43.63;102784.09;5031968;28;20029;-74
2021/12/21 11:30:45;;;;;;;;;;;;;;;11.29;43.04;102781.28;5032869;28;20381;-73
2021/12/21 11:33:11;;;;;;;13.98;8.40;;;;;;;10.85;43.75;102770.47;5031568;28;20015;-74
2021/12/21 11:38:08;;;;;;;14.23;8.68;;;;;;;11.04;44.83;102775.50;5026060;28;20167;-74
2021/12/21 11:40:36;;;;;;;;;;;;;;;10.82;45.11;102767.88;5051053;28;20437;-75
2021/12/21 11:43:16;;;;;;;13.52;7.10;;;;;;;10.78;44.04;102761.75;5037010;28;19932;-74
2021/12/21 11:46:01;;;;;;;16.02;7.80;;;;;;;11.31;44.46;102745.00;5032409;28;20018;-74
2021/12/21 11:48:33;;;;;;;12.73;7.05;;;;;;;11.71;42.28;102740.75;5031336;28;20128;-73
2021/12/21 11:51:10;;;;;;;13.75;6.78;;;;;;;12.06;41.56;102737.44;5031510;28;20105;-73
2021/12/21 11:53:36;;;;;;;14.43;6.72;;;;;;;11.99;41.54;102745.56;5027915;28;20049;-72
2021/12/21 11:56:03;;;;;;;16.88;7.60;;;;;;;11.14;44.21;102745.31;5026312;28;20027;-72
2021/12/21 11:58:33;;;;;;;13.10;6.90;;;;;;;11.58;42.47;102750.72;5031574;28;20043;-73
2021/12/21 12:01:00;;;;;;;13.25;6.35;;;;;;;11.87;41.46;102754.63;5031463;28;20477;-73
2021/12/21 12:03:29;;;;;;;13.57;6.93;;;;;;;11.90;42.39;102750.09;5027484;28;20021;-72
2021/12/21 12:05:57;;;;;;;11.85;6.70;;;;;;;11.50;42.91;102742.91;5031795;28;20076;-73
2021/12/21 12:08:25;;;;;;;11.43;6.03;;;;;;;11.25;42.12;102751.31;5030165;28;20462;-72
2021/12/21 12:11:00;;;;;;;9.75;5.32;;;;;;;11.72;41.12;102740.72;5031413;28;20112;-72
2021/12/21 12:13:43;;;;;;;14.25;6.20;;;;;;;11.12;43.09;102758.56;5030755;28;20029;-73
2021/12/21 12:16:14;;;;;;;12.93;6.68;;;;;;;11.50;42.06;102740.25;5028664;28;20044;-73
2021/12/21 12:18:44;;;;;;;9.43;5.43;;;;;;;11.23;39.36;102734.53;5016745;28;20436;-71
2021/12/21 12:21:30;;;;;;;9.10;5.20;;;;;;;11.40;39.66;102734.22;5031428;28;20057;-72